sensor_id;sensor_type;location;lat;lon;timestamp;temperature;humidity
14172;DHT22;7165;52.388;4.928;2023-02-01T00:02:23;7.80;99.90
14172;DHT22;7165;52.388;4.928;2023-02-01T00:04:51;7.80;99.90
14172;DHT22;7165;52.388;4.928;2023-02-01T00:07:17;7.90;99.90
14172;DHT22;7165;52.388;4.928;2023-02-01T00:09:44;7.90;99.90
14172;DHT22;7165;52.388;4.928;2023-02-01T00:12:11;7.90;99.90
14172;DHT22;7165;52.388;4.928;2023-02-01T00:14:38;7.90;99.90
14172;DHT22;7165;52.388;4.928;2023-02-01T00:17:05;7.90;99.90
14172;DHT22;7165;52.388;4.928;2023-02-01T00:19:32;7.90;99.90
14172;DHT22;7165;52.388;4.928;2023-02-01T00:22:01;7.90;99.90
14172;DHT22;7165;52.388;4.928;2023-02-01T00:24:28;7.90;99.90
14172;DHT22;7165;52.388;4.928;2023-02-01T00:26:54;7.90;99.90
14172;DHT22;7165;52.388;4.928;2023-02-01T00:29:21;7.80;99.90
14172;DHT22;7165;52.388;4.928;2023-02-01T00:31:50;7.80;99.90
14172;DHT22;7165;52.388;4.928;2023-02-01T00:34:18;7.80;99.90
14172;DHT22;7165;52.388;4.928;2023-02-01T00:36:45;7.80;99.90
14172;DHT22;7165;52.388;4.928;2023-02-01T00:39:13;7.80;99.90
14172;DHT22;7165;52.388;4.928;2023-02-01T00:41:40;7.80;99.90
14172;DHT22;7165;52.388;4.928;2023-02-01T00:44:07;7.80;99.90
14172;DHT22;7165;52.388;4.928;2023-02-01T00:46:33;7.80;99.90
14172;DHT22;7165;52.388;4.928;2023-02-01T00:49:00;7.80;99.90
14172;DHT22;7165;52.388;4.928;2023-02-01T00:51:29;7.80;99.90
14172;DHT22;7165;52.388;4.928;2023-02-01T00:53:56;7.80;99.90
14172;DHT22;7165;52.388;4.928;2023-02-01T00:56:24;7.80;99.90
14172;DHT22;7165;52.388;4.928;2023-02-01T00:58:52;7.80;99.90
14172;DHT22;7165;52.388;4.928;2023-02-01T01:01:21;7.80;99.90
14172;DHT22;7165;52.388;4.928;2023-02-01T01:03:50;7.80;99.90
14172;DHT22;7165;52.388;4.928;2023-02-01T01:06:19;7.80;99.90
14172;DHT22;7165;52.388;4.928;2023-02-01T01:08:46;7.80;99.90
14172;DHT22;7165;52.388;4.928;2023-02-01T01:11:15;7.80;99.90
14172;DHT22;7165;52.388;4.928;2023-02-01T01:13:45;7.80;99.90
14172;DHT22;7165;52.388;4.928;2023-02-01T01:16:12;7.80;99.90
14172;DHT22;7165;52.388;4.928;2023-02-01T01:28:46;7.80;99.90
14172;DHT22;7165;52.388;4.928;2023-02-01T01:31:15;7.90;99.90
14172;DHT22;7165;52.388;4.928;2023-02-01T01:33:42;7.90;99.90
14172;DHT22;7165;52.388;4.928;2023-02-01T01:36:10;7.90;99.90
14172;DHT22;7165;52.388;4.928;2023-02-01T01:38:37;7.90;99.90
14172;DHT22;7165;52.388;4.928;2023-02-01T01:41:04;8.00;99.90
14172;DHT22;7165;52.388;4.928;2023-02-01T01:43:48;8.00;99.90
14172;DHT22;7165;52.388;4.928;2023-02-01T01:46:16;8.00;99.90
14172;DHT22;7165;52.388;4.928;2023-02-01T01:48:43;8.00;99.90
14172;DHT22;7165;52.388;4.928;2023-02-01T01:51:13;8.00;99.90
14172;DHT22;7165;52.388;4.928;2023-02-01T01:53:44;8.00;99.90
14172;DHT22;7165;52.388;4.928;2023-02-01T01:56:12;8.00;99.90
14172;DHT22;7165;52.388;4.928;2023-02-01T01:58:39;8.00;99.90
14172;DHT22;7165;52.388;4.928;2023-02-01T02:01:08;8.00;99.90
14172;DHT22;7165;52.388;4.928;2023-02-01T02:03:38;8.00;99.90
14172;DHT22;7165;52.388;4.928;2023-02-01T02:06:09;8.00;99.90
14172;DHT22;7165;52.388;4.928;2023-02-01T02:08:39;8.00;99.90
14172;DHT22;7165;52.388;4.928;2023-02-01T02:11:05;7.90;99.90
14172;DHT22;7165;52.388;4.928;2023-02-01T02:13:34;7.90;99.90
14172;DHT22;7165;52.388;4.928;2023-02-01T02:16:18;7.90;99.90
14172;DHT22;7165;52.388;4.928;2023-02-01T02:18:57;7.90;99.90
14172;DHT22;7165;52.388;4.928;2023-02-01T02:21:40;7.90;99.90
14172;DHT22;7165;52.388;4.928;2023-02-01T02:24:32;7.90;99.90
14172;DHT22;7165;52.388;4.928;2023-02-01T02:27:12;7.90;99.90
14172;DHT22;7165;52.388;4.928;2023-02-01T02:30:13;7.90;99.90
14172;DHT22;7165;52.388;4.928;2023-02-01T02:35:53;7.90;99.90
14172;DHT22;7165;52.388;4.928;2023-02-01T02:38:27;7.90;99.90
14172;DHT22;7165;52.388;4.928;2023-02-01T02:41:06;7.90;99.90
14172;DHT22;7165;52.388;4.928;2023-02-01T02:43:38;7.90;99.90
14172;DHT22;7165;52.388;4.928;2023-02-01T02:46:32;7.90;99.90
14172;DHT22;7165;52.388;4.928;2023-02-01T02:49:22;7.80;99.90
14172;DHT22;7165;52.388;4.928;2023-02-01T02:51:53;7.80;99.90
14172;DHT22;7165;52.388;4.928;2023-02-01T02:54:41;7.70;99.90
14172;DHT22;7165;52.388;4.928;2023-02-01T02:57:15;7.70;99.90
14172;DHT22;7165;52.388;4.928;2023-02-01T03:00:02;7.70;99.90
14172;DHT22;7165;52.388;4.928;2023-02-01T03:02:48;7.70;99.90
14172;DHT22;7165;52.388;4.928;2023-02-01T03:05:34;7.60;99.90
14172;DHT22;7165;52.388;4.928;2023-02-01T03:08:04;7.60;99.90
14172;DHT22;7165;52.388;4.928;2023-02-01T03:10:45;7.60;99.90
14172;DHT22;7165;52.388;4.928;2023-02-01T03:13:19;7.60;99.90
14172;DHT22;7165;52.388;4.928;2023-02-01T03:15:50;7.50;99.90
14172;DHT22;7165;52.388;4.928;2023-02-01T03:18:22;7.50;99.90
14172;DHT22;7165;52.388;4.928;2023-02-01T03:20:52;7.50;99.90
14172;DHT22;7165;52.388;4.928;2023-02-01T03:23:24;7.50;99.90
14172;DHT22;7165;52.388;4.928;2023-02-01T03:25:54;7.50;99.90
14172;DHT22;7165;52.388;4.928;2023-02-01T03:28:23;7.50;99.90
14172;DHT22;7165;52.388;4.928;2023-02-01T03:30:51;7.50;99.90
14172;DHT22;7165;52.388;4.928;2023-02-01T03:33:21;7.50;99.90
14172;DHT22;7165;52.388;4.928;2023-02-01T03:35:54;7.50;99.90
14172;DHT22;7165;52.388;4.928;2023-02-01T03:38:29;7.60;99.90
14172;DHT22;7165;52.388;4.928;2023-02-01T03:41:01;7.60;99.90
14172;DHT22;7165;52.388;4.928;2023-02-01T03:43:33;7.60;99.90
14172;DHT22;7165;52.388;4.928;2023-02-01T03:46:06;7.60;99.90
14172;DHT22;7165;52.388;4.928;2023-02-01T03:48:35;7.60;99.90
14172;DHT22;7165;52.388;4.928;2023-02-01T03:51:05;7.70;99.90
14172;DHT22;7165;52.388;4.928;2023-02-01T03:53:36;7.70;99.90
14172;DHT22;7165;52.388;4.928;2023-02-01T03:56:04;7.70;99.90
14172;DHT22;7165;52.388;4.928;2023-02-01T03:58:30;7.70;99.90
14172;DHT22;7165;52.388;4.928;2023-02-01T04:00:59;7.70;99.90
14172;DHT22;7165;52.388;4.928;2023-02-01T04:03:27;7.60;99.90
14172;DHT22;7165;52.388;4.928;2023-02-01T04:05:54;7.60;99.90
14172;DHT22;7165;52.388;4.928;2023-02-01T04:08:22;7.60;99.90
14172;DHT22;7165;52.388;4.928;2023-02-01T04:10:51;7.60;99.90
14172;DHT22;7165;52.388;4.928;2023-02-01T04:13:17;7.60;99.90
14172;DHT22;7165;52.388;4.928;2023-02-01T04:15:44;7.60;99.90
14172;DHT22;7165;52.388;4.928;2023-02-01T04:18:11;7.60;99.90
14172;DHT22;7165;52.388;4.928;2023-02-01T04:20:38;7.60;99.90
14172;DHT22;7165;52.388;4.928;2023-02-01T04:23:05;7.60;99.90
14172;DHT22;7165;52.388;4.928;2023-02-01T04:25:31;7.50;99.90
14172;DHT22;7165;52.388;4.928;2023-02-01T04:27:59;7.50;99.90
14172;DHT22;7165;52.388;4.928;2023-02-01T04:30:26;7.40;99.90
14172;DHT22;7165;52.388;4.928;2023-02-01T04:32:53;7.50;99.90
14172;DHT22;7165;52.388;4.928;2023-02-01T04:35:19;7.50;99.90
14172;DHT22;7165;52.388;4.928;2023-02-01T04:37:47;7.40;99.90
14172;DHT22;7165;52.388;4.928;2023-02-01T04:40:14;7.40;99.90
14172;DHT22;7165;52.388;4.928;2023-02-01T04:42:40;7.40;99.90
14172;DHT22;7165;52.388;4.928;2023-02-01T04:45:09;7.50;99.90
14172;DHT22;7165;52.388;4.928;2023-02-01T04:47:36;7.50;99.90
14172;DHT22;7165;52.388;4.928;2023-02-01T04:50:03;7.50;99.90
14172;DHT22;7165;52.388;4.928;2023-02-01T04:52:31;7.40;99.90
14172;DHT22;7165;52.388;4.928;2023-02-01T04:54:57;7.50;99.90
14172;DHT22;7165;52.388;4.928;2023-02-01T04:57:25;7.50;99.90
14172;DHT22;7165;52.388;4.928;2023-02-01T04:59:52;7.50;99.90
14172;DHT22;7165;52.388;4.928;2023-02-01T05:02:20;7.50;99.90
14172;DHT22;7165;52.388;4.928;2023-02-01T05:04:47;7.50;99.90
14172;DHT22;7165;52.388;4.928;2023-02-01T05:07:14;7.50;99.90
14172;DHT22;7165;52.388;4.928;2023-02-01T05:09:40;7.50;99.90
14172;DHT22;7165;52.388;4.928;2023-02-01T05:12:08;7.50;99.90
14172;DHT22;7165;52.388;4.928;2023-02-01T05:14:53;7.50;99.90
14172;DHT22;7165;52.388;4.928;2023-02-01T05:17:21;7.50;99.90
14172;DHT22;7165;52.388;4.928;2023-02-01T05:19:48;7.50;99.90
14172;DHT22;7165;52.388;4.928;2023-02-01T05:22:14;7.50;99.90
14172;DHT22;7165;52.388;4.928;2023-02-01T05:24:41;7.50;99.90
14172;DHT22;7165;52.388;4.928;2023-02-01T05:27:08;7.60;99.90
14172;DHT22;7165;52.388;4.928;2023-02-01T05:29:34;7.60;99.90
14172;DHT22;7165;52.388;4.928;2023-02-01T05:32:01;7.60;99.90
14172;DHT22;7165;52.388;4.928;2023-02-01T05:34:29;7.60;99.90
14172;DHT22;7165;52.388;4.928;2023-02-01T05:36:56;7.60;99.90
14172;DHT22;7165;52.388;4.928;2023-02-01T05:39:23;7.60;99.90
14172;DHT22;7165;52.388;4.928;2023-02-01T05:41:49;7.60;99.90
14172;DHT22;7165;52.388;4.928;2023-02-01T05:44:16;7.60;99.90
14172;DHT22;7165;52.388;4.928;2023-02-01T05:46:42;7.60;99.90
14172;DHT22;7165;52.388;4.928;2023-02-01T05:49:09;7.60;99.90
14172;DHT22;7165;52.388;4.928;2023-02-01T05:51:37;7.60;99.90
14172;DHT22;7165;52.388;4.928;2023-02-01T05:54:04;7.60;99.90
14172;DHT22;7165;52.388;4.928;2023-02-01T05:56:31;7.70;99.90
14172;DHT22;7165;52.388;4.928;2023-02-01T05:58:57;7.60;99.90
14172;DHT22;7165;52.388;4.928;2023-02-01T06:01:24;7.60;99.90
14172;DHT22;7165;52.388;4.928;2023-02-01T06:03:51;7.60;99.90
14172;DHT22;7165;52.388;4.928;2023-02-01T06:06:17;7.50;99.90
14172;DHT22;7165;52.388;4.928;2023-02-01T06:08:46;7.50;99.90
14172;DHT22;7165;52.388;4.928;2023-02-01T06:11:13;7.50;99.90
14172;DHT22;7165;52.388;4.928;2023-02-01T06:13:40;7.40;99.90
14172;DHT22;7165;52.388;4.928;2023-02-01T06:16:06;7.40;99.90
14172;DHT22;7165;52.388;4.928;2023-02-01T06:18:33;7.30;99.90
14172;DHT22;7165;52.388;4.928;2023-02-01T06:21:00;7.30;99.90
14172;DHT22;7165;52.388;4.928;2023-02-01T06:23:27;7.30;99.90
14172;DHT22;7165;52.388;4.928;2023-02-01T06:26:01;7.30;99.90
14172;DHT22;7165;52.388;4.928;2023-02-01T06:28:28;7.30;99.90
14172;DHT22;7165;52.388;4.928;2023-02-01T06:30:56;7.30;99.90
14172;DHT22;7165;52.388;4.928;2023-02-01T06:33:23;7.30;99.90
14172;DHT22;7165;52.388;4.928;2023-02-01T06:35:56;7.30;99.90
14172;DHT22;7165;52.388;4.928;2023-02-01T06:38:23;7.30;99.90
14172;DHT22;7165;52.388;4.928;2023-02-01T06:40:52;7.30;99.90
14172;DHT22;7165;52.388;4.928;2023-02-01T06:43:21;7.30;99.90
14172;DHT22;7165;52.388;4.928;2023-02-01T06:45:47;7.30;99.90
14172;DHT22;7165;52.388;4.928;2023-02-01T06:48:14;7.30;99.90
14172;DHT22;7165;52.388;4.928;2023-02-01T06:50:41;7.30;99.90
14172;DHT22;7165;52.388;4.928;2023-02-01T06:53:07;7.40;99.90
14172;DHT22;7165;52.388;4.928;2023-02-01T06:55:34;7.40;99.90
14172;DHT22;7165;52.388;4.928;2023-02-01T06:58:01;7.40;99.90
14172;DHT22;7165;52.388;4.928;2023-02-01T07:00:29;7.40;99.90
14172;DHT22;7165;52.388;4.928;2023-02-01T07:02:57;7.40;99.90
14172;DHT22;7165;52.388;4.928;2023-02-01T07:05:24;7.30;99.90
14172;DHT22;7165;52.388;4.928;2023-02-01T07:07:50;7.30;99.90
14172;DHT22;7165;52.388;4.928;2023-02-01T07:10:17;7.30;99.90
14172;DHT22;7165;52.388;4.928;2023-02-01T07:12:44;7.40;99.90
14172;DHT22;7165;52.388;4.928;2023-02-01T07:15:11;7.40;99.90
14172;DHT22;7165;52.388;4.928;2023-02-01T07:17:39;7.40;99.90
14172;DHT22;7165;52.388;4.928;2023-02-01T07:20:07;7.40;99.90
14172;DHT22;7165;52.388;4.928;2023-02-01T07:22:34;7.40;99.90
14172;DHT22;7165;52.388;4.928;2023-02-01T07:25:02;7.30;99.90
14172;DHT22;7165;52.388;4.928;2023-02-01T07:27:33;7.30;99.90
14172;DHT22;7165;52.388;4.928;2023-02-01T07:30:00;7.30;99.90
14172;DHT22;7165;52.388;4.928;2023-02-01T07:32:27;7.30;99.90
14172;DHT22;7165;52.388;4.928;2023-02-01T07:34:55;7.30;99.90
14172;DHT22;7165;52.388;4.928;2023-02-01T07:37:22;7.30;99.90
14172;DHT22;7165;52.388;4.928;2023-02-01T07:39:50;7.30;99.90
14172;DHT22;7165;52.388;4.928;2023-02-01T07:42:17;7.30;99.90
14172;DHT22;7165;52.388;4.928;2023-02-01T07:44:44;7.30;99.90
14172;DHT22;7165;52.388;4.928;2023-02-01T07:47:10;7.30;99.90
14172;DHT22;7165;52.388;4.928;2023-02-01T07:49:37;7.30;99.90
14172;DHT22;7165;52.388;4.928;2023-02-01T07:52:05;7.40;99.90
14172;DHT22;7165;52.388;4.928;2023-02-01T07:54:32;7.30;99.90
14172;DHT22;7165;52.388;4.928;2023-02-01T07:56:59;7.40;99.90
14172;DHT22;7165;52.388;4.928;2023-02-01T07:59:25;7.40;99.90
14172;DHT22;7165;52.388;4.928;2023-02-01T08:01:52;7.40;99.90
14172;DHT22;7165;52.388;4.928;2023-02-01T08:04:18;7.40;99.90
14172;DHT22;7165;52.388;4.928;2023-02-01T08:06:45;7.40;99.90
14172;DHT22;7165;52.388;4.928;2023-02-01T08:09:13;7.40;99.90
14172;DHT22;7165;52.388;4.928;2023-02-01T08:11:40;7.50;99.90
14172;DHT22;7165;52.388;4.928;2023-02-01T08:14:07;7.50;99.90
14172;DHT22;7165;52.388;4.928;2023-02-01T08:16:34;7.50;99.90
14172;DHT22;7165;52.388;4.928;2023-02-01T08:19:02;7.60;99.90
14172;DHT22;7165;52.388;4.928;2023-02-01T08:21:29;7.60;99.90
14172;DHT22;7165;52.388;4.928;2023-02-01T08:24:05;7.60;99.90
14172;DHT22;7165;52.388;4.928;2023-02-01T08:26:33;7.70;99.90
14172;DHT22;7165;52.388;4.928;2023-02-01T08:29:03;7.70;99.90
14172;DHT22;7165;52.388;4.928;2023-02-01T08:31:31;7.70;99.90
14172;DHT22;7165;52.388;4.928;2023-02-01T08:33:59;7.80;99.90
14172;DHT22;7165;52.388;4.928;2023-02-01T08:36:28;7.80;99.90
14172;DHT22;7165;52.388;4.928;2023-02-01T08:38:55;7.90;99.90
14172;DHT22;7165;52.388;4.928;2023-02-01T08:41:24;7.90;99.90
14172;DHT22;7165;52.388;4.928;2023-02-01T08:43:53;7.90;99.90
14172;DHT22;7165;52.388;4.928;2023-02-01T08:46:20;7.90;99.90
14172;DHT22;7165;52.388;4.928;2023-02-01T08:48:48;8.00;99.90
14172;DHT22;7165;52.388;4.928;2023-02-01T08:51:18;8.00;99.90
14172;DHT22;7165;52.388;4.928;2023-02-01T08:53:45;8.00;99.90
14172;DHT22;7165;52.388;4.928;2023-02-01T08:56:15;8.00;99.90
14172;DHT22;7165;52.388;4.928;2023-02-01T08:58:42;8.00;99.90
14172;DHT22;7165;52.388;4.928;2023-02-01T09:01:13;8.00;99.90
14172;DHT22;7165;52.388;4.928;2023-02-01T09:03:40;8.00;99.90
14172;DHT22;7165;52.388;4.928;2023-02-01T09:06:09;8.00;99.90
14172;DHT22;7165;52.388;4.928;2023-02-01T09:08:36;7.90;99.90
14172;DHT22;7165;52.388;4.928;2023-02-01T09:11:05;7.90;99.90
14172;DHT22;7165;52.388;4.928;2023-02-01T09:13:33;7.90;99.90
14172;DHT22;7165;52.388;4.928;2023-02-01T09:16:00;7.90;99.90
14172;DHT22;7165;52.388;4.928;2023-02-01T09:18:29;7.90;99.90
14172;DHT22;7165;52.388;4.928;2023-02-01T09:20:55;7.90;99.90
14172;DHT22;7165;52.388;4.928;2023-02-01T09:23:22;7.90;99.90
14172;DHT22;7165;52.388;4.928;2023-02-01T09:25:49;7.90;99.90
14172;DHT22;7165;52.388;4.928;2023-02-01T09:28:16;7.90;99.90
14172;DHT22;7165;52.388;4.928;2023-02-01T09:30:43;7.90;99.90
14172;DHT22;7165;52.388;4.928;2023-02-01T09:33:10;7.90;99.90
14172;DHT22;7165;52.388;4.928;2023-02-01T09:35:39;7.90;99.90
14172;DHT22;7165;52.388;4.928;2023-02-01T09:38:05;7.90;99.90
14172;DHT22;7165;52.388;4.928;2023-02-01T09:40:34;7.90;99.90
14172;DHT22;7165;52.388;4.928;2023-02-01T09:43:12;7.90;99.90
14172;DHT22;7165;52.388;4.928;2023-02-01T09:45:47;7.90;99.90
14172;DHT22;7165;52.388;4.928;2023-02-01T09:48:19;7.90;99.90
14172;DHT22;7165;52.388;4.928;2023-02-01T09:50:52;7.80;99.90
14172;DHT22;7165;52.388;4.928;2023-02-01T09:53:23;7.80;99.90
14172;DHT22;7165;52.388;4.928;2023-02-01T09:55:54;7.70;99.90
14172;DHT22;7165;52.388;4.928;2023-02-01T09:58:25;7.70;99.90
14172;DHT22;7165;52.388;4.928;2023-02-01T10:00:55;7.60;99.90
14172;DHT22;7165;52.388;4.928;2023-02-01T10:03:24;7.60;99.90
14172;DHT22;7165;52.388;4.928;2023-02-01T10:06:18;7.60;99.90
14172;DHT22;7165;52.388;4.928;2023-02-01T10:12:28;7.50;99.90
14172;DHT22;7165;52.388;4.928;2023-02-01T10:15:02;7.50;99.90
14172;DHT22;7165;52.388;4.928;2023-02-01T10:17:46;7.60;99.90
14172;DHT22;7165;52.388;4.928;2023-02-01T10:20:21;7.60;99.90
14172;DHT22;7165;52.388;4.928;2023-02-01T10:23:01;7.60;99.90
14172;DHT22;7165;52.388;4.928;2023-02-01T10:25:35;7.70;99.90
14172;DHT22;7165;52.388;4.928;2023-02-01T10:28:03;7.70;99.90
14172;DHT22;7165;52.388;4.928;2023-02-01T10:30:36;7.80;99.90
14172;DHT22;7165;52.388;4.928;2023-02-01T10:33:14;7.80;99.90
14172;DHT22;7165;52.388;4.928;2023-02-01T10:35:44;7.90;99.90
14172;DHT22;7165;52.388;4.928;2023-02-01T10:38:21;7.90;99.90
14172;DHT22;7165;52.388;4.928;2023-02-01T10:40:52;8.00;99.90
14172;DHT22;7165;52.388;4.928;2023-02-01T10:43:20;8.00;99.90
14172;DHT22;7165;52.388;4.928;2023-02-01T10:45:47;8.00;99.90
14172;DHT22;7165;52.388;4.928;2023-02-01T10:48:14;7.90;99.90
14172;DHT22;7165;52.388;4.928;2023-02-01T10:50:46;7.90;99.90
14172;DHT22;7165;52.388;4.928;2023-02-01T10:53:19;8.00;99.90
14172;DHT22;7165;52.388;4.928;2023-02-01T10:55:49;8.00;99.90
14172;DHT22;7165;52.388;4.928;2023-02-01T10:58:18;8.00;99.90
14172;DHT22;7165;52.388;4.928;2023-02-01T11:00:48;8.00;99.90
14172;DHT22;7165;52.388;4.928;2023-02-01T11:03:32;8.00;99.90
14172;DHT22;7165;52.388;4.928;2023-02-01T11:06:00;8.00;99.90
14172;DHT22;7165;52.388;4.928;2023-02-01T11:08:28;8.10;99.90
14172;DHT22;7165;52.388;4.928;2023-02-01T11:11:00;8.10;99.90
14172;DHT22;7165;52.388;4.928;2023-02-01T11:13:32;8.10;99.90
14172;DHT22;7165;52.388;4.928;2023-02-01T11:16:04;8.10;99.90
14172;DHT22;7165;52.388;4.928;2023-02-01T11:18:35;8.10;99.90
14172;DHT22;7165;52.388;4.928;2023-02-01T11:21:03;8.10;99.90
14172;DHT22;7165;52.388;4.928;2023-02-01T11:23:32;8.10;99.90
14172;DHT22;7165;52.388;4.928;2023-02-01T11:26:09;8.10;99.90
14172;DHT22;7165;52.388;4.928;2023-02-01T11:28:39;8.10;99.90
14172;DHT22;7165;52.388;4.928;2023-02-01T11:31:10;8.10;99.90
14172;DHT22;7165;52.388;4.928;2023-02-01T11:33:50;8.20;99.90
14172;DHT22;7165;52.388;4.928;2023-02-01T11:36:21;8.20;99.90
14172;DHT22;7165;52.388;4.928;2023-02-01T11:38:54;8.20;99.90
14172;DHT22;7165;52.388;4.928;2023-02-01T11:41:22;8.30;99.90
14172;DHT22;7165;52.388;4.928;2023-02-01T11:43:55;8.30;99.90
14172;DHT22;7165;52.388;4.928;2023-02-01T11:46:26;8.40;99.90
14172;DHT22;7165;52.388;4.928;2023-02-01T11:48:55;8.40;99.90
14172;DHT22;7165;52.388;4.928;2023-02-01T11:51:34;8.40;99.90
14172;DHT22;7165;52.388;4.928;2023-02-01T11:54:33;8.50;99.90
14172;DHT22;7165;52.388;4.928;2023-02-01T11:57:14;8.40;99.90
14172;DHT22;7165;52.388;4.928;2023-02-01T12:00:02;8.40;99.90
14172;DHT22;7165;52.388;4.928;2023-02-01T12:05:46;8.40;99.90
14172;DHT22;7165;52.388;4.928;2023-02-01T12:08:26;8.40;99.90
14172;DHT22;7165;52.388;4.928;2023-02-01T12:11:06;8.40;99.90
14172;DHT22;7165;52.388;4.928;2023-02-01T12:13:45;8.40;99.90
14172;DHT22;7165;52.388;4.928;2023-02-01T12:16:23;8.50;99.90
14172;DHT22;7165;52.388;4.928;2023-02-01T12:19:14;8.50;99.90
14172;DHT22;7165;52.388;4.928;2023-02-01T12:21:52;8.60;99.90
14172;DHT22;7165;52.388;4.928;2023-02-01T12:24:36;8.60;99.90
14172;DHT22;7165;52.388;4.928;2023-02-01T12:27:18;8.70;99.90
14172;DHT22;7165;52.388;4.928;2023-02-01T12:30:02;8.70;99.90
14172;DHT22;7165;52.388;4.928;2023-02-01T12:32:49;8.80;99.90
14172;DHT22;7165;52.388;4.928;2023-02-01T12:35:44;8.90;99.90
14172;DHT22;7165;52.388;4.928;2023-02-01T12:41:21;9.00;99.90
14172;DHT22;7165;52.388;4.928;2023-02-01T12:43:56;9.00;99.90
14172;DHT22;7165;52.388;4.928;2023-02-01T12:46:28;9.00;99.90
14172;DHT22;7165;52.388;4.928;2023-02-01T12:49:00;9.00;99.90
14172;DHT22;7165;52.388;4.928;2023-02-01T12:51:33;9.00;99.90
14172;DHT22;7165;52.388;4.928;2023-02-01T12:54:02;8.90;99.90
14172;DHT22;7165;52.388;4.928;2023-02-01T12:56:34;8.90;99.90
14172;DHT22;7165;52.388;4.928;2023-02-01T12:59:05;8.90;99.90
14172;DHT22;7165;52.388;4.928;2023-02-01T13:01:39;8.90;99.90
14172;DHT22;7165;52.388;4.928;2023-02-01T13:04:12;8.80;99.90
14172;DHT22;7165;52.388;4.928;2023-02-01T13:06:44;8.80;99.90
14172;DHT22;7165;52.388;4.928;2023-02-01T13:09:18;8.80;99.90
14172;DHT22;7165;52.388;4.928;2023-02-01T13:11:48;8.80;99.90
14172;DHT22;7165;52.388;4.928;2023-02-01T13:14:25;8.80;99.90
14172;DHT22;7165;52.388;4.928;2023-02-01T13:16:59;8.80;99.90
14172;DHT22;7165;52.388;4.928;2023-02-01T13:19:29;8.80;99.90
14172;DHT22;7165;52.388;4.928;2023-02-01T13:21:58;8.90;99.90
14172;DHT22;7165;52.388;4.928;2023-02-01T13:24:33;8.90;99.90
14172;DHT22;7165;52.388;4.928;2023-02-01T13:27:01;9.00;99.90
14172;DHT22;7165;52.388;4.928;2023-02-01T13:29:30;9.00;99.90
14172;DHT22;7165;52.388;4.928;2023-02-01T13:32:11;9.10;99.90
14172;DHT22;7165;52.388;4.928;2023-02-01T13:35:07;9.10;99.90
14172;DHT22;7165;52.388;4.928;2023-02-01T13:37:52;9.20;99.90
14172;DHT22;7165;52.388;4.928;2023-02-01T13:40:35;9.30;99.90
14172;DHT22;7165;52.388;4.928;2023-02-01T13:43:06;9.30;99.90
14172;DHT22;7165;52.388;4.928;2023-02-01T13:45:41;9.40;99.90
14172;DHT22;7165;52.388;4.928;2023-02-01T13:48:19;9.30;99.90
14172;DHT22;7165;52.388;4.928;2023-02-01T13:50:51;9.30;99.90
14172;DHT22;7165;52.388;4.928;2023-02-01T13:53:23;9.30;99.90
14172;DHT22;7165;52.388;4.928;2023-02-01T13:55:57;9.30;99.90
14172;DHT22;7165;52.388;4.928;2023-02-01T13:58:31;9.30;99.90
14172;DHT22;7165;52.388;4.928;2023-02-01T14:04:06;9.50;99.90
14172;DHT22;7165;52.388;4.928;2023-02-01T14:06:41;9.50;99.90
14172;DHT22;7165;52.388;4.928;2023-02-01T14:09:15;9.50;99.90
14172;DHT22;7165;52.388;4.928;2023-02-01T14:11:46;9.60;99.90
14172;DHT22;7165;52.388;4.928;2023-02-01T14:14:44;9.50;99.90
14172;DHT22;7165;52.388;4.928;2023-02-01T14:17:32;9.40;99.90
14172;DHT22;7165;52.388;4.928;2023-02-01T14:23:30;9.40;99.90
14172;DHT22;7165;52.388;4.928;2023-02-01T14:26:14;9.40;99.90
14172;DHT22;7165;52.388;4.928;2023-02-01T14:28:54;9.30;99.90
14172;DHT22;7165;52.388;4.928;2023-02-01T14:31:35;9.10;99.90
14172;DHT22;7165;52.388;4.928;2023-02-01T14:34:13;8.80;99.90
14172;DHT22;7165;52.388;4.928;2023-02-01T14:36:44;8.60;99.90
14172;DHT22;7165;52.388;4.928;2023-02-01T14:39:24;8.50;99.90
14172;DHT22;7165;52.388;4.928;2023-02-01T14:41:55;8.30;99.90
14172;DHT22;7165;52.388;4.928;2023-02-01T14:44:29;8.30;99.90
14172;DHT22;7165;52.388;4.928;2023-02-01T14:47:27;8.30;99.90
14172;DHT22;7165;52.388;4.928;2023-02-01T14:49:58;8.30;99.90
14172;DHT22;7165;52.388;4.928;2023-02-01T14:52:30;8.30;99.90
14172;DHT22;7165;52.388;4.928;2023-02-01T14:55:04;8.40;99.90
14172;DHT22;7165;52.388;4.928;2023-02-01T14:57:34;8.50;99.90
14172;DHT22;7165;52.388;4.928;2023-02-01T15:00:11;8.60;99.90
14172;DHT22;7165;52.388;4.928;2023-02-01T15:02:41;8.70;99.90
14172;DHT22;7165;52.388;4.928;2023-02-01T15:05:31;8.70;99.90
14172;DHT22;7165;52.388;4.928;2023-02-01T15:08:05;8.70;99.90
14172;DHT22;7165;52.388;4.928;2023-02-01T15:10:42;8.70;99.90
14172;DHT22;7165;52.388;4.928;2023-02-01T15:13:21;8.70;99.90
14172;DHT22;7165;52.388;4.928;2023-02-01T15:16:05;8.80;99.90
14172;DHT22;7165;52.388;4.928;2023-02-01T15:18:32;8.80;99.90
14172;DHT22;7165;52.388;4.928;2023-02-01T15:21:01;8.80;99.90
14172;DHT22;7165;52.388;4.928;2023-02-01T15:23:28;8.80;99.90
14172;DHT22;7165;52.388;4.928;2023-02-01T15:25:56;8.80;99.90
14172;DHT22;7165;52.388;4.928;2023-02-01T15:28:25;8.80;99.90
14172;DHT22;7165;52.388;4.928;2023-02-01T15:30:57;8.80;99.90
14172;DHT22;7165;52.388;4.928;2023-02-01T15:33:25;8.80;99.90
14172;DHT22;7165;52.388;4.928;2023-02-01T15:35:53;8.80;99.90
14172;DHT22;7165;52.388;4.928;2023-02-01T15:38:32;8.90;99.90
14172;DHT22;7165;52.388;4.928;2023-02-01T15:41:03;8.90;99.90
14172;DHT22;7165;52.388;4.928;2023-02-01T15:43:31;8.90;99.90
14172;DHT22;7165;52.388;4.928;2023-02-01T15:46:00;8.90;99.90
14172;DHT22;7165;52.388;4.928;2023-02-01T15:48:37;8.80;99.90
14172;DHT22;7165;52.388;4.928;2023-02-01T15:51:05;8.80;99.90
14172;DHT22;7165;52.388;4.928;2023-02-01T15:53:32;8.80;99.90
14172;DHT22;7165;52.388;4.928;2023-02-01T15:56:03;8.80;99.90
14172;DHT22;7165;52.388;4.928;2023-02-01T15:58:30;8.80;99.90
14172;DHT22;7165;52.388;4.928;2023-02-01T16:01:00;8.80;99.90
14172;DHT22;7165;52.388;4.928;2023-02-01T16:03:35;8.80;99.90
14172;DHT22;7165;52.388;4.928;2023-02-01T16:06:04;8.80;99.90
14172;DHT22;7165;52.388;4.928;2023-02-01T16:08:31;8.80;99.90
14172;DHT22;7165;52.388;4.928;2023-02-01T16:11:16;8.80;99.90
14172;DHT22;7165;52.388;4.928;2023-02-01T16:13:46;8.80;99.90
14172;DHT22;7165;52.388;4.928;2023-02-01T16:16:13;8.80;99.90
14172;DHT22;7165;52.388;4.928;2023-02-01T16:18:40;8.90;99.90
14172;DHT22;7165;52.388;4.928;2023-02-01T16:21:07;8.90;99.90
14172;DHT22;7165;52.388;4.928;2023-02-01T16:23:34;8.90;99.90
14172;DHT22;7165;52.388;4.928;2023-02-01T16:26:02;8.90;99.90
14172;DHT22;7165;52.388;4.928;2023-02-01T16:28:29;8.90;99.90
14172;DHT22;7165;52.388;4.928;2023-02-01T16:30:56;8.90;99.90
14172;DHT22;7165;52.388;4.928;2023-02-01T16:33:23;8.90;99.90
14172;DHT22;7165;52.388;4.928;2023-02-01T16:35:50;8.90;99.90
14172;DHT22;7165;52.388;4.928;2023-02-01T16:38:18;8.90;99.90
14172;DHT22;7165;52.388;4.928;2023-02-01T16:40:49;9.00;99.90
14172;DHT22;7165;52.388;4.928;2023-02-01T16:43:19;8.90;99.90
14172;DHT22;7165;52.388;4.928;2023-02-01T16:45:47;8.90;99.90
14172;DHT22;7165;52.388;4.928;2023-02-01T16:48:20;8.90;99.90
14172;DHT22;7165;52.388;4.928;2023-02-01T16:50:49;8.90;99.90
14172;DHT22;7165;52.388;4.928;2023-02-01T16:53:17;8.80;99.90
14172;DHT22;7165;52.388;4.928;2023-02-01T16:55:44;8.80;99.90
14172;DHT22;7165;52.388;4.928;2023-02-01T16:58:13;8.80;99.90